createdAt,value
2022-10-30T00:00:39.258Z,97.97
2022-10-30T00:03:06.340Z,98.75
2022-10-30T00:05:33.001Z,98.85
2022-10-30T00:08:00.099Z,98.35
2022-10-30T00:10:27.071Z,98.46
2022-10-30T00:12:54.330Z,98.68
2022-10-30T00:15:20.910Z,98.63
2022-10-30T00:17:47.464Z,98.92
2022-10-30T00:20:14.110Z,99.55
2022-10-30T00:22:40.640Z,99.38
2022-10-30T00:25:07.665Z,99.46
2022-10-30T00:27:34.228Z,99.08
2022-10-30T00:30:00.832Z,98.72
2022-10-30T00:32:28.131Z,99.05
2022-10-30T00:34:54.725Z,98.88
2022-10-30T00:37:21.438Z,99.36
2022-10-30T00:39:48.081Z,99.84
2022-10-30T00:42:16.104Z,100.00
2022-10-30T00:44:45.645Z,100.00
2022-10-30T00:47:15.687Z,100.00
2022-10-30T00:50:01.184Z,99.88
2022-10-30T00:52:31.851Z,99.99
2022-10-30T00:55:03.853Z,100.00
2022-10-30T00:57:30.400Z,99.87
2022-10-30T00:59:57.478Z,100.00
2022-10-30T01:02:24.276Z,99.48
2022-10-30T01:04:53.398Z,99.45
2022-10-30T01:07:20.043Z,100.00
2022-10-30T01:09:48.073Z,100.00
2022-10-30T01:12:15.567Z,100.00
2022-10-30T01:14:47.819Z,100.00
2022-10-30T01:17:35.496Z,100.00
2022-10-30T01:20:26.876Z,100.00
2022-10-30T01:23:06.820Z,100.00
2022-10-30T01:25:33.374Z,100.00
2022-10-30T01:28:15.927Z,100.00
2022-10-30T01:31:13.705Z,100.00
2022-10-30T01:34:12.168Z,100.00
2022-10-30T01:36:46.217Z,100.00
2022-10-30T01:39:28.150Z,100.00
2022-10-30T01:41:54.822Z,100.00
2022-10-30T01:44:31.737Z,100.00
2022-10-30T01:47:15.085Z,100.00
2022-10-30T01:50:19.157Z,100.00
2022-10-30T01:53:00.056Z,100.00
2022-10-30T01:55:35.388Z,100.00
2022-10-30T01:58:20.213Z,100.00
2022-10-30T02:00:52.699Z,100.00
2022-10-30T02:03:19.736Z,100.00
2022-10-30T02:05:49.710Z,100.00
2022-10-30T02:08:17.296Z,100.00
2022-10-30T02:10:46.281Z,100.00
2022-10-30T02:13:13.309Z,100.00
2022-10-30T02:15:41.814Z,100.00
2022-10-30T02:18:09.485Z,100.00
2022-10-30T02:20:37.135Z,100.00
2022-10-30T02:23:04.619Z,100.00
2022-10-30T02:25:31.397Z,100.00
2022-10-30T02:27:58.077Z,100.00
2022-10-30T02:30:24.713Z,100.00
2022-10-30T02:32:51.267Z,100.00
2022-10-30T02:35:17.812Z,100.00
2022-10-30T02:37:44.405Z,100.00
2022-10-30T02:40:12.343Z,100.00
2022-10-30T02:42:38.974Z,100.00
2022-10-30T02:45:05.906Z,100.00
2022-10-30T02:47:33.961Z,100.00
2022-10-30T02:50:00.550Z,100.00
2022-10-30T02:52:27.158Z,100.00
2022-10-30T02:54:53.713Z,100.00
2022-10-30T02:57:20.250Z,100.00
2022-10-30T02:59:46.850Z,100.00
2022-10-30T03:02:13.439Z,100.00
2022-10-30T03:04:40.086Z,100.00
2022-10-30T03:07:06.681Z,100.00
2022-10-30T03:09:33.263Z,100.00
2022-10-30T03:11:59.868Z,100.00
2022-10-30T03:14:26.758Z,100.00
2022-10-30T10:39:07.587Z,67.86
2022-10-30T10:41:34.132Z,66.43
2022-10-30T10:44:15.134Z,67.38
2022-10-30T10:47:14.085Z,67.51
2022-10-30T10:49:52.649Z,67.87
2022-10-30T10:52:24.807Z,65.94
2022-10-30T10:55:05.111Z,66.14
2022-10-30T10:57:37.991Z,65.63
2022-10-30T11:00:14.083Z,66.29
2022-10-30T11:02:42.361Z,67.50
2022-10-30T11:05:36.335Z,66.37
2022-10-30T11:08:33.116Z,67.01
2022-10-30T11:11:01.982Z,65.73
2022-10-30T11:13:31.984Z,64.63
2022-10-30T11:16:29.466Z,64.11
2022-10-30T11:19:00.469Z,62.42
2022-10-30T11:21:29.712Z,63.35
2022-10-30T11:23:56.268Z,61.79
2022-10-30T11:26:25.537Z,62.20
2022-10-30T11:28:57.346Z,61.52
2022-10-30T11:31:37.788Z,61.62
2022-10-30T11:34:19.923Z,61.46
2022-10-30T11:36:49.130Z,61.16
2022-10-30T11:39:24.899Z,61.53
2022-10-30T11:41:54.769Z,61.48
2022-10-30T11:44:30.740Z,61.51
2022-10-30T11:46:58.390Z,62.29
2022-10-30T11:49:48.397Z,62.54
2022-10-30T11:52:18.439Z,61.42
2022-10-30T11:54:50.738Z,62.09
2022-10-30T11:57:46.386Z,58.04
2022-10-30T12:00:28.104Z,59.53
2022-10-30T12:02:58.543Z,59.21
2022-10-30T12:05:25.288Z,60.58
2022-10-30T12:07:53.348Z,59.42
2022-10-30T12:10:28.165Z,58.07
2022-10-30T12:12:55.257Z,58.68
2022-10-30T12:15:26.526Z,57.82
2022-10-30T12:17:55.348Z,59.17
2022-10-30T12:20:22.211Z,59.01
2022-10-30T12:22:49.524Z,57.49
2022-10-30T12:25:40.161Z,58.75
2022-10-30T12:28:16.640Z,53.80
2022-10-30T12:30:50.184Z,56.77
2022-10-30T12:33:50.112Z,55.64
2022-10-30T12:36:28.053Z,56.97
2022-10-30T12:39:22.230Z,54.24
2022-10-30T12:42:01.625Z,53.70
2022-10-30T12:44:37.074Z,51.33
2022-10-30T12:47:03.697Z,55.09
2022-10-30T12:50:09.205Z,52.75
2022-10-30T12:52:53.919Z,53.11
2022-10-30T12:55:40.550Z,50.48
2022-10-30T12:58:26.293Z,49.85
2022-10-30T13:01:13.113Z,51.25
2022-10-30T13:03:48.651Z,51.87
2022-10-30T13:06:19.552Z,53.39
2022-10-30T13:09:15.545Z,51.17
2022-10-30T13:11:52.803Z,49.21
2022-10-30T13:14:22.537Z,46.45
2022-10-30T13:16:51.041Z,48.53
2022-10-30T13:19:17.657Z,49.56
2022-10-30T13:22:00.603Z,49.22
2022-10-30T13:25:05.276Z,46.16
2022-10-30T13:27:31.835Z,44.62
2022-10-30T13:30:07.194Z,45.86
2022-10-30T13:32:39.999Z,45.75
2022-10-30T13:35:21.978Z,42.91
2022-10-30T13:38:25.976Z,45.94
2022-10-30T13:40:56.331Z,46.45
2022-10-30T13:43:31.067Z,43.39
2022-10-30T13:46:26.630Z,43.61
2022-10-30T13:49:02.384Z,44.44
2022-10-30T13:52:10.362Z,44.84
2022-10-30T13:54:42.550Z,45.36
2022-10-30T13:57:15.108Z,43.04
2022-10-30T13:59:49.363Z,46.27
2022-10-30T14:03:05.396Z,46.06
2022-10-30T14:06:03.012Z,45.63
2022-10-30T14:08:56.588Z,44.93
2022-10-30T14:11:23.211Z,45.38
2022-10-30T14:13:58.378Z,46.74
2022-10-30T14:17:09.713Z,47.00
2022-10-30T14:20:12.487Z,46.15
2022-10-30T14:22:41.167Z,47.53
2022-10-30T14:25:16.180Z,47.21
2022-10-30T14:27:43.172Z,48.01
2022-10-30T14:30:20.380Z,47.79
2022-10-30T14:32:53.847Z,48.65
2022-10-30T14:35:35.873Z,48.85
2022-10-30T14:38:08.788Z,49.81
2022-10-30T14:40:42.090Z,49.44
2022-10-30T14:43:42.746Z,49.55
2022-10-30T14:46:32.232Z,50.46
2022-10-30T14:49:24.159Z,49.34
2022-10-30T14:52:32.741Z,50.55
2022-10-30T14:55:05.309Z,51.03
2022-10-30T14:57:51.485Z,51.00
2022-10-30T15:00:23.934Z,51.44
2022-10-30T15:02:56.642Z,52.49
2022-10-30T15:05:32.497Z,50.33
2022-10-30T15:08:31.139Z,51.06
2022-10-30T15:10:57.755Z,52.11
2022-10-30T15:13:24.457Z,52.34
2022-10-30T15:15:59.909Z,52.58
2022-10-30T15:18:30.527Z,53.31
2022-10-30T15:21:06.671Z,52.81
2022-10-30T15:23:36.011Z,54.09
2022-10-30T15:26:09.719Z,53.70
2022-10-30T15:28:38.919Z,54.42
2022-10-30T15:31:05.724Z,53.50
2022-10-30T15:33:35.514Z,53.12
2022-10-30T15:36:02.352Z,53.95
2022-10-30T15:38:29.318Z,54.53
2022-10-30T15:41:02.187Z,54.76
2022-10-30T15:43:33.666Z,55.75
2022-10-30T15:46:00.469Z,55.88
2022-10-30T15:48:33.812Z,54.44
2022-10-30T15:51:15.575Z,56.02
2022-10-30T15:53:53.239Z,56.57
2022-10-30T15:56:31.220Z,57.16
2022-10-30T15:59:01.807Z,57.74
2022-10-30T16:01:44.794Z,57.72
2022-10-30T16:04:25.034Z,57.38
2022-10-30T16:06:57.629Z,58.05
2022-10-30T16:09:25.620Z,57.93
2022-10-30T16:11:55.361Z,58.34
2022-10-30T16:14:24.720Z,59.12
2022-10-30T16:16:52.063Z,59.27
2022-10-30T16:19:28.043Z,60.01
2022-10-30T16:21:57.740Z,60.29
2022-10-30T16:24:35.256Z,60.94
2022-10-30T16:27:18.230Z,61.30
2022-10-30T16:29:46.967Z,61.85
2022-10-30T16:32:17.596Z,62.20
2022-10-30T16:34:46.190Z,62.56
2022-10-30T16:37:21.179Z,62.80
2022-10-30T16:39:50.796Z,63.54
2022-10-30T16:42:22.041Z,63.56
2022-10-30T16:44:48.873Z,63.69
2022-10-30T16:47:25.843Z,63.90
2022-10-30T16:49:56.684Z,64.19
2022-10-30T16:52:28.389Z,64.03
2022-10-30T16:55:07.905Z,63.94
2022-10-30T16:57:42.622Z,64.21
2022-10-30T17:00:24.429Z,63.85
2022-10-30T17:02:56.197Z,64.02
2022-10-30T17:05:34.301Z,64.35
2022-10-30T17:08:04.423Z,64.37
2022-10-30T17:10:35.232Z,64.61
2022-10-30T17:13:36.203Z,64.80
2022-10-30T17:16:29.577Z,64.96
2022-10-30T17:19:02.101Z,65.27
2022-10-30T17:21:38.412Z,65.84
2022-10-30T17:24:05.464Z,65.92
2022-10-30T17:26:41.042Z,66.19
2022-10-30T17:29:36.738Z,66.23
2022-10-30T17:32:20.341Z,66.77
2022-10-30T17:34:48.246Z,66.54
2022-10-30T17:37:14.905Z,66.44
2022-10-30T17:39:41.562Z,67.00
2022-10-30T17:42:10.238Z,67.09
2022-10-30T17:44:37.524Z,66.68
2022-10-30T17:47:18.724Z,66.14
2022-10-30T17:49:46.005Z,66.02
2022-10-30T17:52:21.919Z,65.45
2022-10-30T17:54:48.792Z,65.41
2022-10-30T17:57:16.758Z,65.47
2022-10-30T17:59:43.696Z,64.73
2022-10-30T18:02:19.137Z,64.87
2022-10-30T18:04:47.810Z,65.01
2022-10-30T18:07:16.381Z,63.83
2022-10-30T18:09:43.906Z,63.11
2022-10-30T18:12:17.148Z,63.65
2022-10-30T18:14:45.690Z,63.83
2022-10-30T18:17:12.901Z,64.26
2022-10-30T18:19:39.700Z,64.30
2022-10-30T18:22:06.365Z,63.57
2022-10-30T18:24:33.058Z,64.45
2022-10-30T18:26:59.730Z,62.89
2022-10-30T18:29:26.363Z,63.55
2022-10-30T18:31:52.984Z,63.61
2022-10-30T18:34:21.644Z,64.64
2022-10-30T18:36:48.874Z,64.43
2022-10-30T18:39:15.661Z,64.60
2022-10-30T18:41:46.590Z,65.15
2022-10-30T18:44:15.777Z,65.67
2022-10-30T18:46:43.132Z,65.99
2022-10-30T18:49:10.083Z,65.49
2022-10-30T18:51:37.268Z,66.35
2022-10-30T18:54:07.969Z,66.15
2022-10-30T18:56:34.520Z,66.59
2022-10-30T18:59:02.535Z,67.16
2022-10-30T19:01:33.317Z,66.88
2022-10-30T19:04:04.549Z,67.39
2022-10-30T19:06:34.360Z,67.78
2022-10-30T19:09:01.374Z,67.91
2022-10-30T19:11:30.839Z,68.27
2022-10-30T19:13:58.328Z,68.38
2022-10-30T19:16:25.445Z,68.60
2022-10-30T19:18:52.801Z,68.66
2022-10-30T19:21:22.663Z,68.99
2022-10-30T19:23:49.733Z,69.00
2022-10-30T19:26:17.579Z,69.12
2022-10-30T19:28:45.419Z,69.51
2022-10-30T19:31:16.809Z,69.40
2022-10-30T19:33:44.057Z,69.20
2022-10-30T19:36:26.287Z,69.36
2022-10-30T19:38:52.950Z,69.48
2022-10-30T19:41:19.745Z,69.52
2022-10-30T19:43:46.419Z,69.55
2022-10-30T19:46:14.758Z,69.47
2022-10-30T19:48:56.767Z,69.72
2022-10-30T19:51:24.109Z,69.79
2022-10-30T19:53:52.696Z,69.62
2022-10-30T19:56:20.345Z,69.91
2022-10-30T19:58:46.973Z,69.04
2022-10-30T20:01:14.244Z,69.58
2022-10-30T20:03:40.936Z,69.35
2022-10-30T20:06:07.729Z,69.44
2022-10-30T20:08:34.376Z,69.76
2022-10-30T20:11:02.399Z,69.86
2022-10-30T20:13:30.275Z,69.89
2022-10-30T20:15:59.310Z,69.74
2022-10-30T20:18:31.658Z,70.21
2022-10-30T20:21:00.745Z,70.04
2022-10-30T20:23:28.064Z,70.12
2022-10-30T20:25:59.873Z,70.01
2022-10-30T20:28:31.504Z,70.43
2022-10-30T20:30:58.200Z,70.79
2022-10-30T20:33:27.986Z,70.74
2022-10-30T20:35:55.278Z,70.43
2022-10-30T20:38:29.261Z,71.00
2022-10-30T20:40:57.304Z,71.10
2022-10-30T20:43:32.976Z,71.21
2022-10-30T20:46:00.747Z,71.30
2022-10-30T20:48:28.783Z,71.61
2022-10-30T20:50:59.795Z,71.37
2022-10-30T20:53:26.892Z,71.81
2022-10-30T20:55:53.499Z,72.02
2022-10-30T20:58:20.344Z,71.64
2022-10-30T21:00:47.649Z,72.02
2022-10-30T21:03:14.903Z,72.31
2022-10-30T21:05:45.103Z,72.15
2022-10-30T21:08:14.130Z,72.96
2022-10-30T21:10:41.760Z,72.60
2022-10-30T21:13:09.560Z,73.24
2022-10-30T21:15:42.926Z,73.00
2022-10-30T21:18:10.839Z,72.83
2022-10-30T21:20:37.835Z,73.15
2022-10-30T21:23:05.242Z,73.21
2022-10-30T21:25:32.634Z,73.52
2022-10-30T21:27:59.984Z,73.44
2022-10-30T21:30:27.517Z,74.06
2022-10-30T21:32:54.099Z,73.78
2022-10-30T21:35:21.005Z,73.26
2022-10-30T21:37:47.681Z,73.18
2022-10-30T21:40:14.404Z,73.52
2022-10-30T21:42:41.052Z,73.40
2022-10-30T21:45:08.728Z,73.83
2022-10-30T21:47:35.408Z,74.12
2022-10-30T21:50:06.277Z,73.73
2022-10-30T21:52:36.208Z,73.98
2022-10-30T21:55:03.101Z,74.13
2022-10-30T21:57:29.795Z,74.42
2022-10-30T21:59:58.851Z,74.47
2022-10-30T22:02:28.359Z,74.71
2022-10-30T22:04:55.289Z,75.28
2022-10-30T22:07:21.979Z,75.52
2022-10-30T22:09:48.584Z,75.68
2022-10-30T22:12:15.150Z,76.20
2022-10-30T22:14:41.775Z,76.01
2022-10-30T22:17:08.802Z,76.14
2022-10-30T22:19:35.434Z,76.48
2022-10-30T22:22:02.030Z,76.75
2022-10-30T22:24:28.657Z,76.88
2022-10-30T22:26:55.280Z,76.66
2022-10-30T22:29:21.979Z,77.75
2022-10-30T22:31:49.769Z,77.29
2022-10-30T22:34:16.373Z,77.62
2022-10-30T22:36:43.065Z,77.81
2022-10-30T22:39:13.834Z,78.52
2022-10-30T22:41:41.431Z,78.18
2022-10-30T22:44:12.586Z,78.98
2022-10-30T22:46:39.401Z,78.92
2022-10-30T22:49:07.199Z,78.77
2022-10-30T22:51:36.582Z,78.94
2022-10-30T22:54:04.013Z,79.82
2022-10-30T22:56:36.165Z,82.04
2022-10-30T22:59:08.170Z,82.13
2022-10-30T23:01:36.811Z,82.69
2022-10-30T23:04:05.327Z,83.29
2022-10-30T23:06:34.252Z,83.81
2022-10-30T23:09:03.569Z,84.43
2022-10-30T23:11:30.514Z,84.70
2022-10-30T23:13:57.454Z,85.03
2022-10-30T23:16:26.005Z,85.25
2022-10-30T23:18:55.446Z,84.54
2022-10-30T23:21:23.118Z,84.85
2022-10-30T23:23:50.334Z,85.40
2022-10-30T23:26:21.572Z,85.68
2022-10-30T23:28:49.645Z,85.42
2022-10-30T23:31:25.630Z,86.05
2022-10-30T23:33:54.304Z,85.89
2022-10-30T23:36:21.172Z,84.84
2022-10-30T23:38:55.748Z,85.66
2022-10-30T23:41:24.604Z,86.92
2022-10-30T23:43:59.489Z,87.23
2022-10-30T23:46:27.310Z,87.76
2022-10-30T23:48:54.070Z,88.26
2022-10-30T23:51:21.579Z,89.17
2022-10-30T23:53:48.716Z,89.59
2022-10-30T23:56:16.316Z,89.82
2022-10-30T23:58:47.334Z,89.40
